createdAt,value
2024-02-29T00:01:50.866Z,6.00
2024-02-29T00:04:19.470Z,6.00
2024-02-29T00:06:46.658Z,6.00
2024-02-29T00:09:13.748Z,6.00
2024-02-29T00:11:40.804Z,6.00
2024-02-29T00:14:07.771Z,6.10
2024-02-29T00:16:34.812Z,6.00
2024-02-29T00:19:02.141Z,6.00
2024-02-29T00:21:30.798Z,6.00
2024-02-29T00:23:58.504Z,6.00
2024-02-29T00:26:25.673Z,6.00
2024-02-29T00:28:53.033Z,6.00
2024-02-29T00:31:20.108Z,6.00
2024-02-29T00:33:47.388Z,6.00
2024-02-29T00:36:14.628Z,6.00
2024-02-29T00:38:43.106Z,6.00
2024-02-29T00:41:10.212Z,6.00
2024-02-29T00:43:37.410Z,6.00
2024-02-29T00:46:05.394Z,5.90
2024-02-29T00:48:32.382Z,5.90
2024-02-29T00:50:59.375Z,5.90
2024-02-29T00:53:26.502Z,5.90
2024-02-29T00:55:54.934Z,5.90
2024-02-29T00:58:22.234Z,5.90
2024-02-29T01:00:49.762Z,5.90
2024-02-29T01:03:17.056Z,5.90
2024-02-29T01:05:45.838Z,5.90
2024-02-29T01:08:12.785Z,5.90
2024-02-29T01:10:40.016Z,5.90
2024-02-29T01:13:08.631Z,5.90
2024-02-29T01:15:35.898Z,5.90
2024-02-29T01:18:03.193Z,5.80
2024-02-29T01:20:30.248Z,5.80
2024-02-29T01:22:57.151Z,5.80
2024-02-29T01:25:24.012Z,5.80
2024-02-29T01:27:51.490Z,5.80
2024-02-29T01:30:20.865Z,5.80
2024-02-29T01:32:48.078Z,5.80
2024-02-29T01:35:15.354Z,5.80
2024-02-29T01:37:42.859Z,5.80
2024-02-29T01:40:10.368Z,5.80
2024-02-29T01:42:41.084Z,5.80
2024-02-29T01:45:09.025Z,5.80
2024-02-29T01:47:37.679Z,5.80
2024-02-29T01:50:08.271Z,5.80
2024-02-29T01:52:39.509Z,5.80
2024-02-29T01:55:07.481Z,5.80
2024-02-29T01:57:35.033Z,5.80
2024-02-29T02:00:03.241Z,5.80
2024-02-29T02:02:30.494Z,5.80
2024-02-29T02:04:58.933Z,5.80
2024-02-29T02:07:26.156Z,5.80
2024-02-29T02:09:53.274Z,5.80
2024-02-29T02:12:20.252Z,5.80
2024-02-29T02:14:47.127Z,5.80
2024-02-29T02:17:13.970Z,5.80
2024-02-29T02:19:42.451Z,5.80
2024-02-29T02:22:10.946Z,5.70
2024-02-29T02:24:38.114Z,5.70
2024-02-29T02:27:05.004Z,5.70
2024-02-29T02:29:31.962Z,5.70
2024-02-29T02:31:58.819Z,5.70
2024-02-29T02:34:25.633Z,5.70
2024-02-29T02:36:52.568Z,5.70
2024-02-29T02:39:20.779Z,5.70
2024-02-29T02:41:47.648Z,5.70
2024-02-29T02:44:14.541Z,5.70
2024-02-29T02:46:41.378Z,5.70
2024-02-29T02:49:08.260Z,5.80
2024-02-29T02:51:35.174Z,5.80
2024-02-29T02:54:02.103Z,5.80
2024-02-29T02:56:30.326Z,5.70
2024-02-29T02:58:57.186Z,5.70
2024-02-29T03:01:23.993Z,5.80
2024-02-29T03:03:50.904Z,5.80
2024-02-29T03:06:17.862Z,5.80
2024-02-29T03:08:44.749Z,5.70
2024-02-29T03:11:11.677Z,5.70
2024-02-29T03:13:39.953Z,5.70
2024-02-29T03:16:06.912Z,5.70
2024-02-29T03:18:33.794Z,5.70
2024-02-29T03:21:00.678Z,5.70
2024-02-29T03:23:27.491Z,5.70
2024-02-29T03:25:54.314Z,5.70
2024-02-29T03:28:21.188Z,5.70
2024-02-29T03:30:49.444Z,5.70
2024-02-29T03:33:16.386Z,5.70
2024-02-29T03:35:43.297Z,5.70
2024-02-29T03:38:10.147Z,5.70
2024-02-29T03:40:36.968Z,5.70
2024-02-29T03:43:04.131Z,5.70
2024-02-29T03:45:30.996Z,5.70
2024-02-29T03:47:59.307Z,5.70
2024-02-29T03:50:26.261Z,5.70
2024-02-29T03:52:53.242Z,5.70
2024-02-29T03:55:20.105Z,5.70
2024-02-29T03:57:47.006Z,5.70
2024-02-29T04:00:14.706Z,5.70
2024-02-29T04:02:41.727Z,5.70
2024-02-29T04:05:10.276Z,5.70
2024-02-29T04:07:37.666Z,5.70
2024-02-29T04:10:05.210Z,5.70
2024-02-29T04:12:32.194Z,5.70
2024-02-29T04:14:59.199Z,5.70
2024-02-29T04:17:26.880Z,5.70
2024-02-29T04:19:53.845Z,5.70
2024-02-29T04:22:22.107Z,5.70
2024-02-29T04:24:49.136Z,5.70
2024-02-29T04:27:16.077Z,5.70
2024-02-29T04:29:45.735Z,5.70
2024-02-29T04:32:12.709Z,5.70
2024-02-29T04:34:39.563Z,5.70
2024-02-29T04:37:06.458Z,5.70
2024-02-29T04:39:34.873Z,5.70
2024-02-29T04:42:01.780Z,5.70
2024-02-29T04:44:28.672Z,5.70
2024-02-29T04:46:55.535Z,5.70
2024-02-29T04:49:22.451Z,5.70
2024-02-29T04:51:49.389Z,5.70
2024-02-29T04:54:16.233Z,5.70
2024-02-29T04:56:44.489Z,5.70
2024-02-29T04:59:11.428Z,5.70
2024-02-29T05:01:38.664Z,5.70
2024-02-29T05:04:05.909Z,5.70
2024-02-29T05:06:32.969Z,5.70
2024-02-29T05:09:00.200Z,5.70
2024-02-29T05:11:27.193Z,5.70
2024-02-29T05:13:55.647Z,5.70
2024-02-29T05:16:22.573Z,5.70
2024-02-29T05:18:49.498Z,5.70
2024-02-29T05:21:16.420Z,5.70
2024-02-29T05:23:43.341Z,5.70
2024-02-29T05:26:11.679Z,5.70
2024-02-29T05:28:38.551Z,5.70
2024-02-29T05:31:06.849Z,5.70
2024-02-29T05:33:33.759Z,5.70
2024-02-29T05:36:00.683Z,5.70
2024-02-29T05:38:27.553Z,5.70
2024-02-29T05:40:54.517Z,5.70
2024-02-29T05:43:21.549Z,5.70
2024-02-29T05:45:48.492Z,5.70
2024-02-29T05:48:16.874Z,5.70
2024-02-29T05:50:43.740Z,5.70
2024-02-29T05:53:10.597Z,5.70
2024-02-29T05:55:37.513Z,5.70
2024-02-29T05:58:04.936Z,5.70
2024-02-29T06:00:31.949Z,5.70
2024-02-29T06:02:58.814Z,5.80
2024-02-29T06:05:27.133Z,5.80
2024-02-29T06:07:54.095Z,5.80
2024-02-29T06:10:21.044Z,5.80
2024-02-29T06:12:48.014Z,5.80
2024-02-29T06:15:15.083Z,5.80
2024-02-29T06:17:42.041Z,5.90
2024-02-29T06:20:10.226Z,5.90
2024-02-29T06:22:39.830Z,5.90
2024-02-29T06:25:07.594Z,5.80
2024-02-29T06:27:34.605Z,5.90
2024-02-29T06:30:01.673Z,5.90
2024-02-29T06:32:28.582Z,5.80
2024-02-29T06:34:55.438Z,5.90
2024-02-29T06:37:22.360Z,5.90
2024-02-29T06:39:50.892Z,5.90
2024-02-29T06:42:17.790Z,6.00
2024-02-29T06:44:44.724Z,6.00
2024-02-29T06:47:11.539Z,6.00
2024-02-29T06:49:38.586Z,6.00
2024-02-29T06:52:05.851Z,6.10
2024-02-29T06:54:32.760Z,6.10
2024-02-29T06:57:01.023Z,6.20
2024-02-29T06:59:27.913Z,6.30
2024-02-29T07:01:55.030Z,6.30
2024-02-29T07:04:21.990Z,6.40
2024-02-29T07:06:48.959Z,6.40
2024-02-29T07:09:15.953Z,6.50
2024-02-29T07:11:42.996Z,6.50
2024-02-29T07:14:11.270Z,6.50
2024-02-29T07:16:38.196Z,6.60
2024-02-29T07:19:05.680Z,6.70
2024-02-29T07:21:32.587Z,6.70
2024-02-29T07:23:59.498Z,6.80
2024-02-29T07:26:26.507Z,6.80
2024-02-29T07:28:53.630Z,6.90
2024-02-29T07:31:21.923Z,7.00
2024-02-29T07:33:48.881Z,7.10
2024-02-29T07:36:15.862Z,7.20
2024-02-29T07:38:42.743Z,7.30
2024-02-29T07:41:09.751Z,7.30
2024-02-29T07:43:36.702Z,7.40
2024-02-29T07:46:04.164Z,7.50
2024-02-29T07:48:32.754Z,7.50
2024-02-29T07:50:59.665Z,7.60
2024-02-29T07:53:26.575Z,7.70
2024-02-29T07:55:53.445Z,7.80
2024-02-29T07:58:20.572Z,7.70
2024-02-29T08:00:47.641Z,7.80
2024-02-29T08:03:14.596Z,8.00
2024-02-29T08:05:42.871Z,8.10
2024-02-29T08:08:09.697Z,8.20
2024-02-29T08:10:36.670Z,8.30
2024-02-29T08:13:03.753Z,8.50
2024-02-29T08:15:30.731Z,8.50
2024-02-29T08:17:57.855Z,8.60
2024-02-29T08:20:25.269Z,8.70
2024-02-29T08:22:53.677Z,8.80
2024-02-29T08:25:20.819Z,8.80
2024-02-29T08:27:47.936Z,8.90
2024-02-29T08:30:15.681Z,8.80
2024-02-29T08:32:42.763Z,8.90
2024-02-29T08:35:10.846Z,8.90
2024-02-29T08:37:39.409Z,9.00
2024-02-29T08:40:09.337Z,9.00
2024-02-29T08:42:36.654Z,9.00
2024-02-29T08:45:04.473Z,9.10
2024-02-29T08:47:31.498Z,9.20
2024-02-29T08:49:58.519Z,9.30
2024-02-29T08:52:26.037Z,9.30
2024-02-29T08:54:53.146Z,9.50
2024-02-29T08:57:21.547Z,9.50
2024-02-29T08:59:48.545Z,9.60
2024-02-29T09:02:15.801Z,9.60
2024-02-29T09:04:43.212Z,9.70
2024-02-29T09:07:10.558Z,9.90
2024-02-29T09:09:38.167Z,10.00
2024-02-29T09:12:05.554Z,10.10
2024-02-29T09:14:34.055Z,10.20
2024-02-29T09:17:01.223Z,10.30
2024-02-29T09:19:28.496Z,10.40
2024-02-29T09:21:55.720Z,10.60
2024-02-29T09:24:22.634Z,10.80
2024-02-29T09:26:49.709Z,11.00
2024-02-29T09:29:16.942Z,11.20
2024-02-29T09:31:45.977Z,11.50
2024-02-29T09:34:13.091Z,11.60
2024-02-29T09:36:40.055Z,11.70
2024-02-29T09:39:07.311Z,11.80
2024-02-29T09:41:58.378Z,11.60
2024-02-29T09:44:21.727Z,11.60
2024-02-29T09:46:51.605Z,11.50
2024-02-29T09:49:19.357Z,11.50
2024-02-29T09:51:47.453Z,11.40
2024-02-29T09:54:17.108Z,11.20
2024-02-29T09:56:45.452Z,11.00
2024-02-29T09:59:15.553Z,11.00
2024-02-29T10:01:44.867Z,11.00
2024-02-29T10:04:13.726Z,11.00
2024-02-29T10:06:41.056Z,11.00
2024-02-29T10:09:08.391Z,11.00
2024-02-29T10:11:41.038Z,11.00
2024-02-29T10:14:19.950Z,10.90
2024-02-29T10:16:50.438Z,10.80
2024-02-29T10:19:19.189Z,10.70
2024-02-29T10:21:46.599Z,10.70
2024-02-29T10:24:13.798Z,10.70
2024-02-29T10:26:41.344Z,10.80
2024-02-29T10:29:10.689Z,10.90
2024-02-29T10:31:39.666Z,11.00
2024-02-29T10:34:10.865Z,11.10
2024-02-29T10:36:39.691Z,11.20
2024-02-29T10:39:06.862Z,11.30
2024-02-29T10:41:34.278Z,11.40
2024-02-29T10:44:04.290Z,11.50
2024-02-29T10:46:33.170Z,11.60
2024-02-29T10:49:03.514Z,11.80
2024-02-29T10:51:41.642Z,11.80
2024-02-29T10:54:20.519Z,11.60
2024-02-29T10:56:49.011Z,11.60
2024-02-29T10:59:18.130Z,11.60
2024-02-29T11:01:46.658Z,11.70
2024-02-29T11:04:14.519Z,11.80
2024-02-29T11:06:43.137Z,11.80
2024-02-29T11:09:13.292Z,11.80
2024-02-29T11:11:40.538Z,11.90
2024-02-29T11:14:11.988Z,12.10
2024-02-29T11:16:39.953Z,12.30
2024-02-29T11:19:07.349Z,12.50
2024-02-29T11:21:34.774Z,12.60
2024-02-29T11:24:02.238Z,12.80
2024-02-29T11:26:31.249Z,13.00
2024-02-29T11:28:58.818Z,13.10
2024-02-29T11:31:26.754Z,13.10
2024-02-29T11:33:55.253Z,13.10
2024-02-29T11:36:24.251Z,13.00
2024-02-29T11:38:51.431Z,13.10
2024-02-29T11:41:20.141Z,13.10
2024-02-29T11:43:48.851Z,13.30
2024-02-29T11:46:16.124Z,13.50
2024-02-29T11:48:43.220Z,13.70
2024-02-29T11:51:10.495Z,13.80
2024-02-29T11:53:39.201Z,14.00
2024-02-29T11:56:14.723Z,13.90
2024-02-29T11:58:43.557Z,14.00
2024-02-29T12:01:12.296Z,14.10
2024-02-29T12:03:39.673Z,14.40
2024-02-29T12:06:07.598Z,14.60
2024-02-29T12:08:34.860Z,14.70
2024-02-29T12:11:02.988Z,14.80
2024-02-29T12:13:31.164Z,14.50
2024-02-29T12:15:59.331Z,14.50
2024-02-29T12:18:27.843Z,14.40
2024-02-29T12:20:54.839Z,14.40
2024-02-29T12:23:22.225Z,14.40
2024-02-29T12:25:49.173Z,14.40
2024-02-29T12:28:16.474Z,14.50
2024-02-29T12:30:46.660Z,14.50
2024-02-29T12:33:13.811Z,14.60
2024-02-29T12:35:44.206Z,14.60
2024-02-29T12:38:15.571Z,14.60
2024-02-29T12:40:42.579Z,14.70
2024-02-29T12:43:14.116Z,14.70
2024-02-29T12:45:42.487Z,14.50
2024-02-29T12:48:09.591Z,14.40
2024-02-29T12:50:36.847Z,14.20
2024-02-29T12:53:05.745Z,14.10
2024-02-29T12:55:32.909Z,14.10
2024-02-29T12:58:00.427Z,14.00
2024-02-29T13:00:27.406Z,14.10
2024-02-29T13:02:55.705Z,14.40
2024-02-29T13:05:22.898Z,15.10
2024-02-29T13:07:49.846Z,15.90
2024-02-29T13:10:18.562Z,16.50
2024-02-29T13:12:51.749Z,17.00
2024-02-29T13:15:24.142Z,17.50
2024-02-29T13:17:51.627Z,18.20
2024-02-29T13:20:18.872Z,18.90
2024-02-29T13:22:46.044Z,19.30
2024-02-29T13:25:14.142Z,19.60
2024-02-29T13:27:43.384Z,20.00
2024-02-29T13:30:11.110Z,19.80
2024-02-29T13:32:38.385Z,19.50
2024-02-29T13:35:06.318Z,19.30
2024-02-29T13:37:33.513Z,19.10
2024-02-29T13:40:00.854Z,19.40
2024-02-29T13:42:28.077Z,20.00
2024-02-29T13:44:56.445Z,20.70
2024-02-29T13:47:23.973Z,21.20
2024-02-29T13:49:51.112Z,21.80
2024-02-29T13:52:19.086Z,22.40
2024-02-29T13:54:47.016Z,22.70
2024-02-29T13:57:14.774Z,22.70
2024-02-29T13:59:43.549Z,22.30
2024-02-29T14:02:12.266Z,22.20
2024-02-29T14:04:39.430Z,22.60
2024-02-29T14:07:06.776Z,22.50
2024-02-29T14:09:33.716Z,22.40
2024-02-29T14:12:00.656Z,22.60
2024-02-29T14:14:27.664Z,22.90
2024-02-29T14:16:55.001Z,23.20
2024-02-29T14:19:23.771Z,23.50
2024-02-29T14:21:51.090Z,23.60
2024-02-29T14:24:18.038Z,23.50
2024-02-29T14:26:45.165Z,23.60
2024-02-29T14:29:14.335Z,23.60
2024-02-29T14:31:42.603Z,23.60
2024-02-29T14:34:09.580Z,23.60
2024-02-29T14:36:39.726Z,23.80
2024-02-29T14:39:06.863Z,23.90
2024-02-29T14:41:34.371Z,23.70
2024-02-29T14:44:01.520Z,23.80
2024-02-29T14:46:29.005Z,23.60
2024-02-29T14:48:56.250Z,23.30
2024-02-29T14:51:23.496Z,23.30
2024-02-29T14:53:52.442Z,23.00
2024-02-29T14:56:19.732Z,22.60
2024-02-29T14:58:47.244Z,21.90
2024-02-29T15:01:14.596Z,21.30
2024-02-29T15:03:42.193Z,21.10
2024-02-29T15:06:09.274Z,21.10
2024-02-29T15:08:36.556Z,21.30
2024-02-29T15:11:05.603Z,21.40
2024-02-29T15:13:32.654Z,21.50
2024-02-29T15:16:00.046Z,21.50
2024-02-29T15:18:27.224Z,21.20
2024-02-29T15:20:54.445Z,21.10
2024-02-29T15:23:21.769Z,21.00
2024-02-29T15:25:49.247Z,20.90
2024-02-29T15:28:18.107Z,20.70
2024-02-29T15:30:45.479Z,20.50
2024-02-29T15:33:12.888Z,20.20
2024-02-29T15:35:40.340Z,20.00
2024-02-29T15:38:07.310Z,19.70
2024-02-29T15:40:34.360Z,19.40
2024-02-29T15:43:01.371Z,19.20
2024-02-29T15:45:30.090Z,18.80
2024-02-29T15:47:57.351Z,18.50
2024-02-29T15:50:25.021Z,18.30
2024-02-29T15:52:52.060Z,18.00
2024-02-29T15:55:19.208Z,17.60
2024-02-29T15:57:46.628Z,17.30
2024-02-29T16:00:15.071Z,16.80
2024-02-29T16:02:44.041Z,16.40
2024-02-29T16:05:11.281Z,16.10
2024-02-29T16:07:38.444Z,15.80
2024-02-29T16:10:06.287Z,15.50
2024-02-29T16:12:33.494Z,15.30
2024-02-29T16:15:00.846Z,14.90
2024-02-29T16:17:28.051Z,14.60
2024-02-29T16:19:56.942Z,14.20
2024-02-29T16:22:24.155Z,13.90
2024-02-29T16:24:51.182Z,13.40
2024-02-29T16:27:18.429Z,13.10
2024-02-29T16:29:45.629Z,12.70
2024-02-29T16:32:12.672Z,12.30
2024-02-29T16:34:40.017Z,12.00
2024-02-29T16:37:08.950Z,11.70
2024-02-29T16:39:36.126Z,11.40
2024-02-29T16:42:03.434Z,11.00
2024-02-29T16:44:30.894Z,10.70
2024-02-29T16:46:58.065Z,10.50
2024-02-29T16:49:25.489Z,10.10
2024-02-29T16:51:52.601Z,9.80
2024-02-29T16:54:23.929Z,9.50
2024-02-29T16:56:50.904Z,9.20
2024-02-29T16:59:18.135Z,9.00
2024-02-29T17:01:46.769Z,8.80
2024-02-29T17:04:14.084Z,8.60
2024-02-29T17:06:41.423Z,8.40
2024-02-29T17:09:08.534Z,8.30
2024-02-29T17:11:37.337Z,8.10
2024-02-29T17:14:04.605Z,8.00
2024-02-29T17:16:31.629Z,7.80
2024-02-29T17:18:59.030Z,7.70
2024-02-29T17:21:27.518Z,7.60
2024-02-29T17:23:54.515Z,7.50
2024-02-29T17:26:21.928Z,7.40
2024-02-29T17:28:50.302Z,7.30
2024-02-29T17:31:17.381Z,7.30
2024-02-29T17:33:44.577Z,7.20
2024-02-29T17:36:11.602Z,7.10
2024-02-29T17:38:38.858Z,7.10
2024-02-29T17:41:06.077Z,7.10
2024-02-29T17:43:33.184Z,7.00
2024-02-29T17:46:02.098Z,6.90
2024-02-29T17:48:29.565Z,6.90
2024-02-29T17:50:56.644Z,6.80
2024-02-29T17:53:23.819Z,6.80
2024-02-29T17:55:51.132Z,6.90
2024-02-29T17:58:18.360Z,6.90
2024-02-29T18:00:45.609Z,6.80
2024-02-29T18:03:14.456Z,6.70
2024-02-29T18:05:41.659Z,6.70
2024-02-29T18:08:08.737Z,6.60
2024-02-29T18:10:35.940Z,6.60
2024-02-29T18:13:03.637Z,6.50
2024-02-29T18:15:30.605Z,6.50
2024-02-29T18:17:57.845Z,6.50
2024-02-29T18:20:26.298Z,6.40
2024-02-29T18:22:53.349Z,6.40
2024-02-29T18:25:20.863Z,6.40
2024-02-29T18:27:48.258Z,6.30
2024-02-29T18:30:15.909Z,6.30
2024-02-29T18:32:43.321Z,6.30
2024-02-29T18:35:10.924Z,6.20
2024-02-29T18:37:39.770Z,6.20
2024-02-29T18:40:08.562Z,6.20
2024-02-29T18:42:35.493Z,6.10
2024-02-29T18:45:02.768Z,6.10
2024-02-29T18:47:30.413Z,6.10
2024-02-29T18:49:57.771Z,6.10
2024-02-29T18:52:25.163Z,6.10
2024-02-29T18:54:54.061Z,6.10
2024-02-29T18:57:21.278Z,6.00
2024-02-29T18:59:48.358Z,6.00
2024-02-29T19:02:15.566Z,6.00
2024-02-29T19:04:42.828Z,6.00
2024-02-29T19:07:09.953Z,6.00
2024-02-29T19:09:36.950Z,6.00
2024-02-29T19:12:06.430Z,6.00
2024-02-29T19:14:33.461Z,5.90
2024-02-29T19:17:00.471Z,5.90
2024-02-29T19:19:27.484Z,5.80
2024-02-29T19:21:54.431Z,5.70
2024-02-29T19:24:21.776Z,5.70
2024-02-29T19:26:48.782Z,5.70
2024-02-29T19:29:17.179Z,5.60
2024-02-29T19:31:44.140Z,5.70
2024-02-29T19:34:11.112Z,5.60
2024-02-29T19:36:38.476Z,5.60
2024-02-29T19:39:05.452Z,5.50
2024-02-29T19:41:32.354Z,5.50
2024-02-29T19:43:59.427Z,5.40
2024-02-29T19:46:28.246Z,5.40
2024-02-29T19:48:55.529Z,5.40
2024-02-29T19:51:22.524Z,5.40
2024-02-29T19:53:49.683Z,5.30
2024-02-29T19:56:18.229Z,5.30
2024-02-29T19:58:45.570Z,5.20
2024-02-29T20:01:12.913Z,5.20
2024-02-29T20:03:41.420Z,5.20
2024-02-29T20:06:08.488Z,5.20
2024-02-29T20:08:35.461Z,5.10
2024-02-29T20:11:03.414Z,5.10
2024-02-29T20:13:31.185Z,5.00
2024-02-29T20:15:58.347Z,5.00
2024-02-29T20:18:25.361Z,5.00
2024-02-29T20:20:53.814Z,5.00
2024-02-29T20:23:20.896Z,5.00
2024-02-29T20:25:47.852Z,5.00
2024-02-29T20:28:15.144Z,5.00
2024-02-29T20:30:42.108Z,4.90
2024-02-29T20:33:09.559Z,4.90
2024-02-29T20:35:36.674Z,4.90
2024-02-29T20:38:05.034Z,4.90
2024-02-29T20:40:32.444Z,4.80
2024-02-29T20:42:59.737Z,4.80
2024-02-29T20:45:26.982Z,4.80
2024-02-29T20:47:54.242Z,4.70
2024-02-29T20:50:21.394Z,4.70
2024-02-29T20:52:48.439Z,4.70
2024-02-29T20:55:17.100Z,4.60
2024-02-29T20:57:44.338Z,4.60
2024-02-29T21:00:12.533Z,4.50
2024-02-29T21:02:39.744Z,4.50
2024-02-29T21:05:07.267Z,4.50
2024-02-29T21:07:34.807Z,4.50
2024-02-29T21:10:03.044Z,4.40
2024-02-29T21:12:31.498Z,4.50
2024-02-29T21:14:58.688Z,4.50
2024-02-29T21:17:25.868Z,4.40
2024-02-29T21:19:52.841Z,4.40
2024-02-29T21:22:20.034Z,4.40
2024-02-29T21:24:47.108Z,4.30
2024-02-29T21:27:14.385Z,4.30
2024-02-29T21:29:45.036Z,4.30
2024-02-29T21:32:12.412Z,4.20
2024-02-29T21:34:42.180Z,4.20
2024-02-29T21:37:09.354Z,4.10
2024-02-29T21:39:44.120Z,4.10
2024-02-29T21:42:12.500Z,4.10
2024-02-29T21:44:39.897Z,4.00
2024-02-29T21:47:08.676Z,4.00
2024-02-29T21:49:35.936Z,4.00
2024-02-29T21:52:03.553Z,3.90
2024-02-29T21:54:30.658Z,3.90
2024-02-29T21:56:57.632Z,3.80
2024-02-29T21:59:24.857Z,3.80
2024-02-29T22:01:51.910Z,3.80
2024-02-29T22:04:20.845Z,3.80
2024-02-29T22:06:47.894Z,3.80
2024-02-29T22:09:15.208Z,3.80
2024-02-29T22:11:44.539Z,3.70
2024-02-29T22:14:12.787Z,3.70
2024-02-29T22:16:41.797Z,3.60
2024-02-29T22:19:08.966Z,3.60
2024-02-29T22:21:37.496Z,3.60
2024-02-29T22:24:04.789Z,3.60
2024-02-29T22:26:31.985Z,3.60
2024-02-29T22:29:00.084Z,3.60
2024-02-29T22:31:29.236Z,3.60
2024-02-29T22:33:56.653Z,3.60
2024-02-29T22:36:23.953Z,3.60
2024-02-29T22:38:52.443Z,3.50
2024-02-29T22:41:19.364Z,3.50
2024-02-29T22:43:46.610Z,3.50
2024-02-29T22:46:13.530Z,3.50
2024-02-29T22:48:40.457Z,3.40
2024-02-29T22:51:07.619Z,3.40
2024-02-29T22:53:35.730Z,3.40
2024-02-29T22:56:04.826Z,3.40
2024-02-29T22:58:32.102Z,3.30
2024-02-29T23:00:59.361Z,3.20
2024-02-29T23:03:26.393Z,3.20
2024-02-29T23:05:53.361Z,3.10
2024-02-29T23:08:20.298Z,3.00
2024-02-29T23:10:47.739Z,3.00
2024-02-29T23:13:16.703Z,2.90
2024-02-29T23:15:43.746Z,2.90
2024-02-29T23:18:10.756Z,2.80
2024-02-29T23:20:37.686Z,2.80
2024-02-29T23:23:05.309Z,2.80
2024-02-29T23:25:32.657Z,2.80
2024-02-29T23:27:59.798Z,2.80
2024-02-29T23:30:28.095Z,2.80
2024-02-29T23:32:55.192Z,2.90
2024-02-29T23:35:22.314Z,2.90
2024-02-29T23:37:49.366Z,2.90
2024-02-29T23:40:16.781Z,3.00
2024-02-29T23:42:44.309Z,2.90
2024-02-29T23:45:11.790Z,2.90
2024-02-29T23:47:40.378Z,3.00
2024-02-29T23:50:08.465Z,2.90
2024-02-29T23:52:35.896Z,2.90
2024-02-29T23:55:05.571Z,2.90
2024-02-29T23:57:32.838Z,2.90
2024-02-29T23:59:59.910Z,2.90
